Time;durP1;ratioP1;P1;durP2;ratioP2;P2;SDS_P1;SDS_P2;PMS_P1;PMS_P2;Temp;Humidity;BMP_temperature;BMP_pressure;BME280_temperature;BME280_humidity;BME280_pressure;Samples;Min_cycle;Max_cycle;Signal;HPM_P1;HPM_P2
2021/04/01 00:03:25;;;;;;;8.87;7.40;;;;;;;8.97;78.84;99653.84;5139698;23;20294;-77
2021/04/01 00:06:19;;;;;;;8.50;7.43;;;;;;;8.92;78.71;99648.28;5052493;28;20210;-77
2021/04/01 00:10:00;;;;;;;9.27;8.00;;;;;;;8.79;79.26;99644.63;5049301;23;20229;-78
2021/04/01 00:13:33;;;;;;;9.97;7.53;;;;;;;8.78;79.86;99647.50;5051153;23;20222;-77
2021/04/01 00:16:57;;;;;;;9.03;7.83;;;;;;;8.67;79.92;99638.28;5011525;28;20221;-78
2021/04/01 00:19:54;;;;;;;9.80;8.10;;;;;;;8.67;79.79;99640.97;5058461;23;20228;-77
2021/04/01 00:22:59;;;;;;;12.80;7.33;;;;;;;8.64;80.70;99641.34;5023120;23;20223;-78
2021/04/01 00:26:41;;;;;;;11.13;7.63;;;;;;;8.66;80.55;99630.47;5021899;23;20226;-77
2021/04/01 00:29:44;;;;;;;9.27;7.77;;;;;;;8.68;80.50;99629.22;5130033;23;20273;-77
2021/04/01 00:32:50;;;;;;;12.57;7.47;;;;;;;8.68;80.35;99631.06;5020490;23;20229;31
2021/04/01 00:36:16;;;;;;;9.80;7.53;;;;;;;8.63;80.23;99612.19;5037417;23;20257;-77
2021/04/01 00:39:59;;;;;;;9.13;7.50;;;;;;;8.65;80.09;99626.97;5039623;28;20605;-77
2021/04/01 00:43:40;;;;;;;9.60;7.53;;;;;;;8.64;80.32;99616.50;5038862;23;21435;-77
2021/04/01 00:47:25;;;;;;;10.13;8.20;;;;;;;8.53;80.57;99620.63;5080794;23;20220;-78
2021/04/01 00:51:07;;;;;;;8.80;7.40;;;;;;;8.43;80.71;99609.53;5073165;23;20220;-77
2021/04/01 00:55:02;;;;;;;10.00;7.37;;;;;;;8.50;80.65;99609.50;5072561;28;20213;-77
2021/04/01 00:58:40;;;;;;;12.13;8.00;;;;;;;8.45;80.67;99611.97;5068755;28;20249;-78
2021/04/01 01:02:36;;;;;;;9.63;7.90;;;;;;;8.36;80.60;99600.69;5065877;23;20235;-78
2021/04/01 01:05:47;;;;;;;8.90;7.37;;;;;;;8.29;81.15;99599.84;5059011;23;20229;-78
2021/04/01 01:08:38;;;;;;;10.27;7.53;;;;;;;8.32;81.78;99610.97;5053219;23;20245;-78
2021/04/01 01:11:57;;;;;;;9.73;7.60;;;;;;;8.37;81.83;99613.03;5072828;23;20217;-77
2021/04/01 01:16:01;;;;;;;9.90;7.97;;;;;;;8.35;81.93;99613.22;5140392;23;20235;-77
2021/04/01 01:19:21;;;;;;;8.80;7.90;;;;;;;8.37;82.13;99605.00;5049256;28;20227;-78
2021/04/01 01:23:10;;;;;;;8.67;7.23;;;;;;;8.37;82.16;99594.34;5055055;23;20224;-78
2021/04/01 01:30:22;;;;;;;10.83;7.77;;;;;;;8.21;81.69;99565.38;4982519;28;20231;-78
2021/04/01 01:37:28;;;;;;;8.83;7.53;;;;;;;8.27;81.46;99575.22;5132715;23;20328;-77
2021/04/01 01:41:29;;;;;;;10.67;7.07;;;;;;;8.39;81.86;99585.09;5049210;28;20285;-77
2021/04/01 01:45:34;;;;;;;11.57;7.53;;;;;;;8.34;81.70;99582.22;5057136;23;20230;-77
2021/04/01 01:49:03;;;;;;;10.40;7.53;;;;;;;8.29;82.59;99587.38;5057218;23;20226;-77
2021/04/01 01:52:12;;;;;;;8.77;7.03;;;;;;;8.22;82.33;99575.81;5025916;28;20522;-77
2021/04/01 01:55:41;;;;;;;7.80;6.63;;;;;;;8.12;81.56;99566.59;5071449;22;20233;-77
2021/04/01 01:59:29;;;;;;;8.43;7.00;;;;;;;8.08;81.74;99579.50;5060587;23;20233;-77
2021/04/01 02:02:41;;;;;;;8.30;7.40;;;;;;;7.99;81.50;99559.41;5040224;23;20234;-77
2021/04/01 02:06:02;;;;;;;9.03;7.43;;;;;;;7.83;82.43;99541.13;5061990;23;20248;-77
2021/04/01 02:09:22;;;;;;;8.97;7.87;;;;;;;7.90;82.84;99558.78;5048481;23;20236;-78
2021/04/01 02:12:40;;;;;;;8.53;7.53;;;;;;;7.88;82.44;99562.69;5054970;28;20259;-77
2021/04/01 02:16:38;;;;;;;8.93;7.30;;;;;;;7.86;83.02;99560.22;5071950;28;20233;-77
2021/04/01 02:23:57;;;;;;;10.80;7.63;;;;;;;7.81;82.95;99552.00;5048828;28;20209;-76
2021/04/01 02:27:26;;;;;;;10.53;7.97;;;;;;;7.55;83.39;99519.97;5064311;23;20253;-77
2021/04/01 02:31:29;;;;;;;11.20;7.93;;;;;;;7.72;83.31;99552.41;5076263;23;20225;31
2021/04/01 02:34:58;;;;;;;9.67;7.57;;;;;;;7.73;83.16;99556.72;4973994;28;20237;-77
2021/04/01 02:38:29;;;;;;;9.57;7.37;;;;;;;7.73;82.59;99554.88;4977150;29;20220;-76
2021/04/01 02:42:14;;;;;;;11.00;7.80;;;;;;;7.72;83.39;99550.56;4973639;29;20292;-77
2021/04/01 02:45:48;;;;;;;10.10;8.10;;;;;;;7.72;82.84;99550.56;5013692;23;20232;-78
2021/04/01 02:49:35;;;;;;;8.50;7.60;;;;;;;7.66;82.94;99550.53;5051707;23;20231;-78
2021/04/01 02:53:18;;;;;;;9.47;7.80;;;;;;;7.66;83.56;99545.19;5053528;28;20207;-78
2021/04/01 02:56:57;;;;;;;8.17;7.30;;;;;;;7.67;83.74;99544.19;5053997;28;20317;-78
2021/04/01 03:00:18;;;;;;;8.63;7.30;;;;;;;7.67;83.31;99547.66;5061795;23;20246;-78
2021/04/01 03:03:57;;;;;;;9.97;7.70;;;;;;;7.66;83.77;99542.53;5032654;28;20185;-78
2021/04/01 03:07:17;;;;;;;11.43;8.37;;;;;;;7.69;84.04;99534.97;5062008;23;20313;-78
2021/04/01 03:10:41;;;;;;;9.17;7.13;;;;;;;7.68;84.09;99548.50;5042612;23;20232;-78
2021/04/01 03:13:53;;;;;;;9.20;7.50;;;;;;;7.61;84.06;99543.13;5050955;28;20313;-78
2021/04/01 03:17:12;;;;;;;9.70;7.63;;;;;;;7.62;83.28;99543.97;5058664;23;20229;-79
2021/04/01 03:20:41;;;;;;;7.97;7.27;;;;;;;7.55;83.89;99543.97;5045234;28;20230;-78
2021/04/01 03:24:07;;;;;;;8.03;7.07;;;;;;;7.33;83.74;99515.81;5081296;23;20316;-78
2021/04/01 03:27:31;;;;;;;8.47;7.27;;;;;;;7.35;83.36;99509.25;5033207;23;20236;-78
2021/04/01 03:34:46;;;;;;;8.07;7.07;;;;;;;7.38;83.67;99532.00;5030934;28;20183;-79
2021/04/01 03:38:19;;;;;;;9.77;7.87;;;;;;;7.27;84.50;99540.63;5030223;28;20301;-78
2021/04/01 03:41:26;;;;;;;10.93;7.63;;;;;;;7.20;84.89;99540.56;4994386;28;20219;-78
2021/04/01 03:45:01;;;;;;;8.23;7.40;;;;;;;7.17;85.42;99535.66;5049459;23;20258;-78
2021/04/01 03:48:31;;;;;;;11.93;8.00;;;;;;;7.16;84.63;99536.69;5048722;28;20227;-78
2021/04/01 03:52:35;;;;;;;8.47;7.30;;;;;;;7.16;84.97;99539.34;5075425;23;20246;-78
2021/04/01 03:56:18;;;;;;;7.70;6.87;;;;;;;7.20;85.47;99534.44;5032447;28;20241;-78
2021/04/01 03:59:22;;;;;;;10.10;7.00;;;;;;;7.17;84.50;99537.50;5051227;28;20223;-78
2021/04/01 04:03:32;;;;;;;8.90;7.30;;;;;;;7.13;84.51;99526.44;5034487;23;20225;-78
2021/04/01 04:17:17;;;;;;;8.10;7.30;;;;;;;7.08;84.89;99516.38;5041931;28;20206;-79
2021/04/01 04:20:52;;;;;;;8.93;7.63;;;;;;;7.21;84.95;99528.09;5052210;28;20510;-79
2021/04/01 04:24:26;;;;;;;8.93;6.83;;;;;;;7.16;84.17;99535.84;5059114;23;20236;-78
2021/04/01 04:28:21;;;;;;;9.23;7.43;;;;;;;6.94;84.75;99509.34;5169707;23;20233;-78
2021/04/01 04:31:34;;;;;;;10.30;7.60;;;;;;;7.08;84.87;99524.38;5064212;23;20218;-78
2021/04/01 04:35:23;;;;;;;9.27;7.80;;;;;;;7.17;84.25;99542.81;5040546;28;20208;-79
2021/04/01 04:38:54;;;;;;;10.60;8.00;;;;;;;7.20;84.28;99540.56;5027338;28;20221;-79
2021/04/01 04:42:53;;;;;;;9.67;8.47;;;;;;;7.29;84.37;99533.22;5034357;23;20288;-78
2021/04/01 04:46:13;;;;;;;10.17;8.13;;;;;;;7.27;83.96;99522.78;4989122;28;20292;-78
2021/04/01 04:49:29;;;;;;;10.23;7.80;;;;;;;7.27;84.32;99530.78;5044742;23;20335;-78
2021/04/01 04:52:55;;;;;;;8.33;7.37;;;;;;;7.32;83.58;99515.00;5069583;28;20245;-78
2021/04/01 04:56:23;;;;;;;9.70;8.07;;;;;;;7.35;83.08;99527.09;5070552;28;20182;-78
2021/04/01 05:07:40;;;;;;;10.03;7.27;;;;;;;7.50;83.40;99515.25;5021498;28;20257;-78
2021/04/01 05:10:59;;;;;;;11.67;8.17;;;;;;;7.70;83.45;99514.47;5055042;23;20226;-78
2021/04/01 05:14:23;;;;;;;12.07;7.83;;;;;;;7.87;81.80;99518.34;5046853;28;20291;-78
2021/04/01 05:17:47;;;;;;;15.57;7.33;;;;;;;8.01;82.52;99519.19;5050891;28;20228;-78
2021/04/01 05:21:09;;;;;;;10.73;7.27;;;;;;;8.18;81.52;99520.41;5046471;28;20265;-78
2021/04/01 05:24:37;;;;;;;10.60;7.73;;;;;;;8.36;80.65;99520.59;5047462;28;20194;-78
2021/04/01 05:28:20;;;;;;;10.57;7.60;;;;;;;8.56;80.35;99526.75;5049667;28;20197;-79
2021/04/01 05:31:48;;;;;;;16.70;8.27;;;;;;;8.87;79.37;99519.84;5012922;28;20222;-78
2021/04/01 05:35:15;;;;;;;10.60;7.10;;;;;;;9.08;78.22;99507.03;5024048;28;20259;-78
2021/04/01 05:38:45;;;;;;;11.20;7.10;;;;;;;9.32;77.72;99505.47;5005516;28;20226;-78
2021/04/01 05:42:01;;;;;;;9.07;7.10;;;;;;;9.66;77.32;99520.28;5055528;23;20221;-78
2021/04/01 05:45:46;;;;;;;15.17;7.20;;;;;;;9.96;75.86;99510.59;4996466;28;20231;-79
2021/04/01 05:49:18;;;;;;;13.73;7.43;;;;;;;10.30;74.78;99511.16;5065513;23;20215;-79
2021/04/01 06:03:43;;;;;;;10.67;5.77;;;;;;;11.67;68.33;99524.72;5034544;28;20251;-79
2021/04/01 06:07:23;;;;;;;11.67;5.40;;;;;;;11.98;66.54;99504.88;5011857;28;20195;-78
2021/04/01 06:10:40;;;;;;;8.50;5.30;;;;;;;12.40;65.81;99528.97;5013481;28;20233;-78
2021/04/01 06:14:16;;;;;;;9.87;5.27;;;;;;;12.51;64.69;99510.13;5031876;28;20206;-78
2021/04/01 06:18:28;;;;;;;11.07;4.93;;;;;;;12.98;63.60;99528.88;5015822;23;20262;31
2021/04/01 06:25:38;;;;;;;8.67;4.97;;;;;;;13.63;62.49;99529.38;4984011;28;20216;-79
2021/04/01 06:29:20;;;;;;;12.47;4.97;;;;;;;13.89;61.26;99507.25;5040839;23;20265;-79
2021/04/01 06:32:26;;;;;;;8.90;5.33;;;;;;;14.34;59.64;99519.81;5044645;28;20213;-83
2021/04/01 06:36:02;;;;;;;6.57;4.33;;;;;;;14.58;59.02;99528.53;5054796;28;20214;-80
2021/04/01 06:39:40;;;;;;;9.77;5.23;;;;;;;15.15;57.19;99526.34;5039043;23;20264;-82
2021/04/01 06:42:39;;;;;;;9.43;4.50;;;;;;;15.68;56.19;99517.47;5032561;28;20244;-81
2021/04/01 06:45:21;;;;;;;7.17;4.63;;;;;;;16.08;54.69;99504.34;5002616;28;20259;-81
2021/04/01 06:48:01;;;;;;;9.07;4.50;;;;;;;16.65;53.17;99522.63;5016022;28;20223;-82
2021/04/01 06:50:51;;;;;;;17.90;14.00;;;;;;;17.01;52.72;99508.19;4987013;28;20748;-82
2021/04/01 06:56:48;;;;;;;11.37;5.10;;;;;;;17.98;50.19;99503.84;5001049;28;20586;-82
2021/04/01 07:04:45;;;;;;;7.17;4.23;;;;;;;19.09;46.92;99481.91;5020374;28;20676;-80
2021/04/01 07:07:16;;;;;;;8.73;4.80;;;;;;;19.42;45.99;99485.00;5003012;28;20217;-79
2021/04/01 07:12:36;;;;;;;10.03;4.50;;;;;;;19.87;45.76;99484.75;4991976;28;20531;-80
2021/04/01 07:15:20;;;;;;;7.27;4.50;;;;;;;20.06;44.74;99493.81;5019929;28;20645;-80
2021/04/01 07:17:57;;;;;;;10.80;4.80;;;;;;;20.15;44.48;99483.16;5001788;28;20528;-81
2021/04/01 07:35:46;;;;;;;39.17;7.57;;;;;;;21.75;40.76;99476.06;4992908;28;20238;-79
2021/04/01 07:47:42;;;;;;;9.53;5.33;;;;;;;22.56;37.77;99465.69;5020468;28;20224;-82
2021/04/01 07:50:40;;;;;;;11.50;5.50;;;;;;;22.68;37.42;99455.06;5014331;28;20368;-82
2021/04/01 07:53:27;;;;;;;11.80;5.77;;;;;;;22.65;36.79;99444.75;5031850;28;20276;-88
2021/04/01 07:56:22;;;;;;;95.70;13.20;;;;;;;22.81;35.22;99440.66;5000965;28;20252;-84
2021/04/01 07:59:49;;;;;;;18.43;6.37;;;;;;;22.97;35.11;99441.13;5011601;28;20316;-89
2021/04/01 08:04:18;;;;;;;9.37;6.43;;;;;;;23.23;33.70;99440.31;5003343;28;20540;-84
2021/04/01 08:06:46;;;;;;;13.47;6.90;;;;;;;23.40;32.44;99445.09;5015625;28;20245;-81
2021/04/01 08:09:20;;;;;;;12.27;7.63;;;;;;;23.45;30.49;99455.97;5026048;28;20275;-88
2021/04/01 08:11:53;;;;;;;18.83;8.40;;;;;;;23.36;29.87;99441.38;5013943;28;20249;-84
2021/04/01 08:14:33;;;;;;;12.53;8.57;;;;;;;23.29;29.66;99449.16;5019156;28;20272;-89
2021/04/01 08:17:05;;;;;;;12.83;8.83;;;;;;;23.13;28.68;99440.53;5035274;28;20307;-88
2021/04/01 08:19:38;;;;;;;11.63;8.30;;;;;;;23.22;28.95;99446.06;5017887;28;20261;-89
2021/04/01 08:22:30;;;;;;;13.23;7.85;;;;;;;23.43;29.30;99441.75;5034507;28;20226;-88
2021/04/01 08:25:23;;;;;;;13.47;8.50;;;;;;;23.35;29.76;99425.28;5015608;28;20234;-88
2021/04/01 08:34:38;;;;;;;12.63;8.47;;;;;;;23.73;29.39;99423.03;5034656;28;20235;-86
2021/04/01 08:37:40;;;;;;;21.20;8.50;;;;;;;23.90;29.21;99420.41;5023285;28;20338;-89
2021/04/01 08:40:40;;;;;;;11.35;9.18;;;;;;;23.72;27.72;99414.03;5001460;28;20229;-83
2021/04/01 08:43:56;;;;;;;12.63;9.10;;;;;;;23.74;28.43;99403.59;5017982;28;20236;-85
2021/04/01 08:47:32;;;;;;;11.48;9.30;;;;;;;23.58;27.30;99411.34;5035389;28;20234;-86
2021/04/01 08:50:26;;;;;;;11.60;9.40;;;;;;;23.55;26.83;99392.84;5017515;28;20668;-84
2021/04/01 08:53:30;;;;;;;10.57;8.98;;;;;;;24.05;26.72;99398.13;5000307;28;20576;-86
2021/04/01 08:56:17;;;;;;;15.50;9.90;;;;;;;24.02;26.39;99404.25;5014456;28;20239;-84
2021/04/01 08:59:29;;;;;;;14.88;9.77;;;;;;;23.89;26.02;99394.19;5017028;28;20236;-90
2021/04/01 09:02:23;;;;;;;13.77;10.60;;;;;;;23.79;26.11;99398.00;5033041;28;20627;-86
2021/04/01 09:05:10;;;;;;;13.38;9.32;;;;;;;23.84;26.27;99384.19;5033724;28;20222;-89
2021/04/01 09:08:05;;;;;;;15.32;9.43;;;;;;;24.03;26.07;99390.22;5035067;28;20226;-85
2021/04/01 09:10:56;;;;;;;11.88;9.70;;;;;;;24.09;26.71;99390.91;5036462;28;20218;-85
2021/04/01 09:13:39;;;;;;;12.32;9.63;;;;;;;24.10;26.08;99387.06;4991063;28;20249;-88
2021/04/01 09:16:30;;;;;;;10.73;9.43;;;;;;;24.07;26.18;99385.78;5021862;28;20237;-85
2021/04/01 09:19:14;;;;;;;14.38;9.40;;;;;;;24.03;26.73;99400.38;5011350;28;20227;-82
2021/04/01 09:21:55;;;;;;;12.15;9.80;;;;;;;23.91;26.30;99383.72;5031991;28;20282;-83
2021/04/01 09:24:34;;;;;;;12.82;9.77;;;;;;;23.89;26.41;99388.72;5026035;28;20237;-84
2021/04/01 09:27:25;;;;;;;13.23;9.77;;;;;;;23.99;25.59;99372.00;5029215;28;20234;-83
2021/04/01 09:30:06;;;;;;;12.20;9.85;;;;;;;24.14;25.80;99391.59;5033844;28;20221;-88
2021/04/01 09:32:53;;;;;;;13.57;9.65;;;;;;;24.12;25.32;99382.88;5033411;28;20531;-83
2021/04/01 09:35:33;;;;;;;17.13;10.45;;;;;;;23.86;25.76;99381.13;5006493;28;20273;-89
2021/04/01 09:38:18;;;;;;;20.98;10.27;;;;;;;23.68;25.88;99370.06;5013945;28;20276;-89
2021/04/01 09:41:06;;;;;;;12.43;9.15;;;;;;;24.13;25.36;99379.03;5032005;28;20222;-81
2021/04/01 09:44:10;;;;;;;21.00;9.82;;;;;;;24.36;25.10;99387.19;5007418;28;20493;-84
2021/04/01 09:47:16;;;;;;;14.35;9.90;;;;;;;24.41;24.68;99351.47;4998341;28;20225;-84
2021/04/01 09:50:11;;;;;;;12.48;9.50;;;;;;;24.75;24.67;99376.22;5029515;28;20265;-84
2021/04/01 09:53:03;;;;;;;15.68;9.35;;;;;;;24.86;25.57;99374.00;5004140;28;20228;-84
2021/04/01 09:55:46;;;;;;;14.13;10.05;;;;;;;25.03;23.82;99371.28;5013080;28;20254;-83
2021/04/01 09:58:31;;;;;;;12.45;9.18;;;;;;;24.96;24.13;99379.19;5014221;28;20231;-88
2021/04/01 10:01:29;;;;;;;13.13;9.02;;;;;;;25.09;24.76;99380.19;5023378;28;20520;-88
2021/04/01 10:04:21;;;;;;;13.43;9.30;;;;;;;25.23;24.19;99372.59;5033044;28;20229;-88
2021/04/01 10:07:14;;;;;;;15.15;10.20;;;;;;;24.99;24.76;99362.09;5019245;28;20230;-87
2021/04/01 10:09:53;;;;;;;11.32;9.25;;;;;;;24.95;24.76;99361.13;5034568;28;20271;-85
2021/04/01 10:12:39;;;;;;;13.50;9.45;;;;;;;24.92;25.42;99372.72;4998670;28;20230;-88
2021/04/01 10:15:32;;;;;;;13.25;9.55;;;;;;;24.58;24.51;99350.72;5018913;28;20220;-82
2021/04/01 10:18:07;;;;;;;14.13;9.90;;;;;;;24.86;24.51;99361.13;5033266;28;20277;-88
2021/04/01 10:21:04;;;;;;;13.45;9.15;;;;;;;24.84;24.96;99346.09;5033143;28;20305;-85
2021/04/01 10:23:59;;;;;;;13.30;10.00;;;;;;;25.21;23.75;99345.50;5017997;28;20269;-85
2021/04/01 10:26:44;;;;;;;14.52;11.82;;;;;;;25.10;23.91;99340.69;4998485;28;20571;-86
2021/04/01 10:32:40;;;;;;;18.25;10.65;;;;;;;25.91;22.00;99329.75;5013113;28;20250;-89
2021/04/01 10:35:32;;;;;;;16.25;11.82;;;;;;;26.27;21.54;99335.63;5000850;28;20237;-88
2021/04/01 10:38:07;;;;;;;12.40;9.55;;;;;;;26.48;20.87;99336.50;5032626;28;20235;-85
2021/04/01 10:40:47;;;;;;;16.38;10.27;;;;;;;26.73;21.37;99294.34;5033736;28;20229;-88
2021/04/01 10:43:35;;;;;;;15.45;11.98;;;;;;;26.68;21.32;99322.00;5003253;28;20279;-90
2021/04/01 10:46:20;;;;;;;13.43;11.00;;;;;;;26.78;21.35;99304.31;5021187;28;20225;-81
2021/04/01 10:49:05;;;;;;;13.38;10.30;;;;;;;26.89;20.49;99323.97;5005828;28;20253;-83
2021/04/01 10:52:06;;;;;;;11.52;8.77;;;;;;;27.00;20.46;99314.22;4994824;28;20217;-86
2021/04/01 10:54:56;;;;;;;15.63;9.90;;;;;;;26.67;20.57;99309.41;4995268;28;20228;-88
2021/04/01 10:57:35;;;;;;;15.52;10.15;;;;;;;26.12;20.73;99306.78;5009753;28;20663;-89
2021/04/01 11:00:16;;;;;;;14.57;9.95;;;;;;;25.80;21.28;99299.16;5002472;28;20616;-84
2021/04/01 11:03:02;;;;;;;13.77;9.82;;;;;;;25.32;21.65;99302.13;5017107;28;20279;-80
2021/04/01 11:05:40;;;;;;;14.68;9.88;;;;;;;25.15;22.12;99302.94;5002452;28;20228;-86
2021/04/01 11:08:15;;;;;;;13.25;9.80;;;;;;;25.07;22.81;99281.81;5017818;28;20221;-88
2021/04/01 11:11:02;;;;;;;11.40;9.25;;;;;;;24.72;22.65;99291.94;5004327;28;20254;-82
2021/04/01 11:13:49;;;;;;;10.90;9.25;;;;;;;24.95;22.73;99284.41;5000085;28;20222;-89
2021/04/01 11:16:34;;;;;;;13.23;8.95;;;;;;;25.05;23.38;99300.53;5003882;28;20683;-87
2021/04/01 11:19:07;;;;;;;10.60;9.20;;;;;;;25.25;22.89;99293.56;5003063;28;20661;-89
2021/04/01 11:21:50;;;;;;;12.73;9.57;;;;;;;25.57;22.93;99295.78;5020517;28;20218;-87
2021/04/01 11:24:34;;;;;;;13.38;8.60;;;;;;;25.76;21.47;99277.03;5003848;28;20226;-91
2021/04/01 11:27:21;;;;;;;11.50;8.77;;;;;;;25.84;21.08;99278.97;5004400;28;20222;-86
2021/04/01 11:30:01;;;;;;;13.57;8.70;;;;;;;25.67;21.61;99276.25;4985208;28;20236;-86
2021/04/01 11:32:41;;;;;;;10.93;8.30;;;;;;;25.62;21.51;99265.44;5030529;28;20648;-92
2021/04/01 11:35:17;;;;;;;11.75;9.00;;;;;;;25.72;21.05;99254.13;5020888;28;20229;-87
2021/04/01 11:38:08;;;;;;;11.00;9.25;;;;;;;25.49;20.78;99265.63;5021315;28;20659;-86
2021/04/01 11:41:05;;;;;;;12.93;8.70;;;;;;;25.32;19.93;99264.53;5022409;28;20287;-89
2021/04/01 11:43:56;;;;;;;12.77;8.05;;;;;;;25.35;20.29;99265.81;5002162;28;20279;-84
2021/04/01 11:46:34;;;;;;;11.20;8.15;;;;;;;25.37;20.65;99244.38;4993098;28;20366;-91
2021/04/01 11:49:09;;;;;;;11.65;7.13;;;;;;;25.27;20.30;99248.25;4989514;28;20286;-85
2021/04/01 11:51:43;;;;;;;12.82;7.40;;;;;;;25.08;19.58;99238.78;5017166;28;20227;-89
2021/04/01 11:54:24;;;;;;;14.10;7.72;;;;;;;25.12;21.27;99247.94;4991095;28;20564;-91
2021/04/01 11:56:59;;;;;;;14.10;8.35;;;;;;;25.20;20.61;99242.44;5014062;28;20227;-92
2021/04/01 11:59:41;;;;;;;11.52;8.40;;;;;;;24.98;20.96;99224.28;5021576;28;20286;-89
2021/04/01 12:02:18;;;;;;;14.13;8.23;;;;;;;25.07;20.70;99228.94;5002953;28;20304;-90
2021/04/01 12:04:53;;;;;;;11.55;8.32;;;;;;;25.26;20.36;99234.88;5016984;28;20223;-87
2021/04/01 12:07:31;;;;;;;12.10;7.63;;;;;;;25.12;20.36;99204.91;5006377;28;20221;-93
2021/04/01 12:10:11;;;;;;;13.27;9.15;;;;;;;25.01;20.65;99230.25;5018711;28;20235;-83
2021/04/01 12:13:00;;;;;;;14.70;9.60;;;;;;;24.94;20.69;99204.13;5003452;28;20246;-86
2021/04/01 12:15:35;;;;;;;16.13;9.27;;;;;;;25.06;19.73;99210.88;5019534;28;20242;-86
2021/04/01 12:18:11;;;;;;;11.52;8.38;;;;;;;25.23;20.50;99219.09;5017637;28;20229;-87
2021/04/01 12:20:50;;;;;;;12.27;9.60;;;;;;;25.26;19.53;99212.94;4988136;28;20222;-91
2021/04/01 12:23:41;;;;;;;15.77;9.00;;;;;;;25.52;20.07;99199.16;4998277;28;20518;-90
2021/04/01 12:26:09;;;;;;;12.77;8.98;;;;;;;25.59;18.35;99183.81;4998358;28;20710;-83
2021/04/01 12:28:37;;;;;;;15.45;9.32;;;;;;;25.69;19.23;99194.44;4977509;28;20254;-85
2021/04/01 12:31:12;;;;;;;16.27;9.52;;;;;;;25.71;19.00;99172.94;4998937;28;20232;-86
2021/04/01 12:33:50;;;;;;;13.32;9.25;;;;;;;25.72;18.94;99174.56;5013614;28;20243;-87
2021/04/01 12:36:35;;;;;;;14.63;8.93;;;;;;;25.87;19.11;99173.19;5017886;28;20239;-89
2021/04/01 12:39:09;;;;;;;13.13;8.15;;;;;;;25.99;19.52;99156.03;4996715;28;20230;-90
2021/04/01 12:41:39;;;;;;;13.45;8.77;;;;;;;25.88;18.63;99161.09;4966243;28;20224;-85
2021/04/01 12:44:10;;;;;;;11.65;8.48;;;;;;;25.68;17.80;99140.69;4982247;28;20523;-91
2021/04/01 12:46:45;;;;;;;10.40;7.97;;;;;;;25.51;17.77;99151.72;4992817;28;20237;-82
2021/04/01 12:49:24;;;;;;;12.35;7.63;;;;;;;25.56;17.46;99148.03;4983253;28;21002;-88
2021/04/01 12:52:09;;;;;;;9.90;7.53;;;;;;;25.62;17.90;99144.75;4977319;28;20232;-92
2021/04/01 12:54:51;;;;;;;10.38;6.90;;;;;;;25.93;18.10;99135.41;4988145;28;20233;-93
2021/04/01 12:57:31;;;;;;;9.75;7.55;;;;;;;25.98;18.14;99143.44;5014894;28;20233;-88
2021/04/01 13:00:14;;;;;;;10.75;7.55;;;;;;;25.95;17.49;99125.69;5006402;28;20284;-88
2021/04/01 13:02:47;;;;;;;13.07;7.28;;;;;;;26.04;18.02;99120.94;4997109;28;20222;-91
2021/04/01 13:05:26;;;;;;;13.50;7.78;;;;;;;26.00;18.07;99124.69;5001434;28;20238;-86
2021/04/01 13:11:09;;;;;;;11.15;6.57;;;;;;;25.93;17.86;99106.03;4977512;28;20319;-92
2021/04/01 13:13:51;;;;;;;12.40;9.05;;;;;;;25.85;18.43;99095.88;4999769;28;20600;-92
2021/04/01 13:16:34;;;;;;;13.27;7.93;;;;;;;26.08;18.74;99108.16;5017556;28;20286;-88
2021/04/01 13:19:13;;;;;;;10.50;7.07;;;;;;;26.09;18.61;99111.69;4995083;28;20241;-90
2021/04/01 13:22:07;;;;;;;10.35;7.10;;;;;;;26.34;18.32;99108.00;4986896;28;20223;-88
2021/04/01 13:27:35;;;;;;;10.93;7.00;;;;;;;26.47;18.62;99095.91;5016756;28;20243;-87
2021/04/01 13:30:16;;;;;;;13.73;7.47;;;;;;;26.40;18.86;99072.91;5002523;28;20224;-88
2021/04/01 13:35:43;;;;;;;10.35;7.13;;;;;;;26.46;18.73;99096.25;4982374;28;20232;-88
2021/04/01 13:38:27;;;;;;;11.07;8.02;;;;;;;25.96;18.34;99069.66;5016007;28;20237;-91
2021/04/01 13:41:08;;;;;;;12.45;8.13;;;;;;;25.99;18.67;99079.19;5014070;28;20286;-90
2021/04/01 13:43:45;;;;;;;9.20;7.10;;;;;;;26.03;19.11;99072.69;5017894;28;20236;-90
2021/04/01 13:46:26;;;;;;;13.95;7.80;;;;;;;25.90;18.70;99065.50;5014526;28;20253;-90
2021/04/01 13:49:09;;;;;;;9.85;6.72;;;;;;;25.91;18.33;99055.34;4998066;28;20230;-89
2021/04/01 13:52:12;;;;;;;11.73;6.75;;;;;;;25.99;18.71;99062.72;5014344;28;20224;-88
2021/04/01 13:55:04;;;;;;;10.48;6.00;;;;;;;26.28;19.03;99074.44;4993713;28;20583;-90
2021/04/01 14:08:55;;;;;;;9.93;5.72;;;;;;;26.20;19.39;99060.75;5005786;28;20508;-87
2021/04/01 14:10:27;;;;;;;9.15;6.07;;;;;;;26.30;18.88;99038.41;5027866;28;20245;-87
2021/04/01 14:13:09;;;;;;;7.47;5.63;;;;;;;26.41;18.97;99047.03;5032766;28;20312;-86
2021/04/01 14:15:48;;;;;;;8.98;5.50;;;;;;;26.12;18.64;99037.75;5018417;28;20233;-90
2021/04/01 14:18:32;;;;;;;8.68;5.70;;;;;;;26.05;19.09;99047.63;5028313;28;20237;-90
2021/04/01 14:21:13;;;;;;;8.07;5.35;;;;;;;26.16;19.17;99046.91;4990454;28;20238;-89
2021/04/01 14:24:16;;;;;;;11.80;6.03;;;;;;;26.08;19.28;99038.75;5018534;28;20276;-86
2021/04/01 14:27:24;;;;;;;6.82;5.43;;;;;;;26.08;19.63;99028.53;5033497;28;20231;-87
2021/04/01 14:30:06;;;;;;;7.72;5.38;;;;;;;26.07;19.46;99024.22;5024304;28;20649;-87
2021/04/01 14:32:46;;;;;;;8.68;5.13;;;;;;;26.08;19.68;99030.50;5036656;28;20223;-82
2021/04/01 14:35:35;;;;;;;8.40;5.50;;;;;;;25.92;19.98;99010.28;5036830;28;20676;-91
2021/04/01 14:38:13;;;;;;;12.15;5.18;;;;;;;25.85;19.87;98977.88;5021281;28;20523;-90
2021/04/01 14:41:06;;;;;;;6.25;4.55;;;;;;;26.14;19.50;99007.19;5036170;28;20283;-87
2021/04/01 14:46:25;;;;;;;5.97;4.32;;;;;;;26.05;19.24;99014.69;5016928;28;20630;-83
2021/04/01 14:49:12;;;;;;;9.07;5.10;;;;;;;25.95;18.71;98998.63;5017345;28;20265;-82
2021/04/01 14:52:01;;;;;;;7.75;5.70;;;;;;;25.95;19.25;99018.66;5033633;28;20288;-89
2021/04/01 14:54:42;;;;;;;9.65;5.57;;;;;;;25.80;19.50;99000.06;5021149;28;20252;-87
2021/04/01 14:57:33;;;;;;;9.52;4.78;;;;;;;25.93;19.60;99006.41;5020625;28;20532;-88
2021/04/01 15:00:17;;;;;;;7.90;4.63;;;;;;;26.00;19.49;99003.91;5001531;28;20259;-86
2021/04/01 15:03:01;;;;;;;9.95;4.95;;;;;;;25.76;19.62;99010.09;5021887;28;20278;-81
2021/04/01 15:05:49;;;;;;;7.63;4.78;;;;;;;25.85;19.66;99011.63;5036585;28;20548;-87
2021/04/01 15:08:32;;;;;;;7.07;4.47;;;;;;;25.81;20.04;99010.69;5021735;28;20224;-88
2021/04/01 15:11:17;;;;;;;8.40;5.00;;;;;;;25.58;20.07;98992.16;5021323;28;20232;-87
2021/04/01 15:13:58;;;;;;;6.55;4.95;;;;;;;25.71;20.43;98997.38;5021887;28;20233;-84
2021/04/01 15:16:32;;;;;;;7.75;4.80;;;;;;;25.59;20.11;98991.00;5020480;28;20222;-86
2021/04/01 15:19:19;;;;;;;8.73;5.05;;;;;;;25.49;20.69;98992.19;5036597;28;20229;-89
2021/04/01 15:22:02;;;;;;;8.80;5.22;;;;;;;25.42;20.67;98975.47;5016968;28;20292;-84
2021/04/01 15:24:45;;;;;;;8.57;5.10;;;;;;;25.34;21.02;98970.81;5001206;28;20528;-89
2021/04/01 15:27:18;;;;;;;9.65;4.90;;;;;;;25.17;21.50;98968.19;5017510;28;20237;-86
2021/04/01 15:30:00;;;;;;;7.28;4.45;;;;;;;24.90;21.97;98945.63;5017932;28;20246;-88
2021/04/01 15:32:40;;;;;;;7.45;4.97;;;;;;;24.71;21.71;98974.50;5035307;28;20225;-87
2021/04/01 15:35:17;;;;;;;7.50;4.38;;;;;;;24.51;22.34;98968.63;5020274;28;20322;-81
2021/04/01 15:37:45;;;;;;;6.93;4.82;;;;;;;24.47;22.76;98980.53;5036152;28;20316;-88
2021/04/01 15:40:17;;;;;;;9.73;4.72;;;;;;;24.52;22.90;98974.91;5035096;28;20583;-89
2021/04/01 15:42:48;;;;;;;9.77;4.95;;;;;;;24.56;23.70;98986.81;5019816;28;20540;-87
2021/04/01 15:45:26;;;;;;;6.80;4.22;;;;;;;24.67;23.27;98976.31;5019902;28;20289;-86
2021/04/01 15:48:12;;;;;;;7.18;4.10;;;;;;;24.60;23.11;98971.31;5007559;28;20236;-88
2021/04/01 15:50:59;;;;;;;8.48;4.63;;;;;;;24.62;23.15;98981.97;5020594;28;20220;-90
2021/04/01 15:53:46;;;;;;;5.85;4.68;;;;;;;24.31;23.02;98980.25;5021391;28;20240;-85
2021/04/01 15:56:26;;;;;;;8.55;4.70;;;;;;;24.24;23.29;98984.63;5035151;28;20258;-86
2021/04/01 15:59:11;;;;;;;8.55;3.80;;;;;;;24.13;23.28;98989.59;5015438;28;20521;-86
2021/04/01 16:01:54;;;;;;;9.40;4.00;;;;;;;23.84;23.14;98967.59;5019675;28;20233;-82
2021/04/01 16:04:34;;;;;;;7.18;3.50;;;;;;;23.78;22.98;98955.19;5032834;28;20224;-86
2021/04/01 16:07:19;;;;;;;10.70;3.80;;;;;;;23.66;22.73;98964.03;5034641;28;20237;-83